createdAt,value
2019-03-05T00:01:49.603Z,22.10
2019-03-05T00:04:19.151Z,25.87
2019-03-05T00:06:48.709Z,22.10
2019-03-05T00:09:22.538Z,18.80
2019-03-05T00:11:52.294Z,16.87
2019-03-05T00:14:23.803Z,19.43
2019-03-05T00:16:53.511Z,18.90
2019-03-05T00:19:23.009Z,19.90
2019-03-05T00:21:52.521Z,18.23
2019-03-05T00:25:00.667Z,23.67
2019-03-05T00:27:33.065Z,21.37
2019-03-05T00:31:07.969Z,20.43
2019-03-05T00:34:05.185Z,19.63
2019-03-05T00:36:50.685Z,18.00
2019-03-05T00:39:48.726Z,18.20
2019-03-05T00:42:44.276Z,18.90
2019-03-05T00:45:44.304Z,19.07
2019-03-05T00:48:52.543Z,20.83
2019-03-05T00:52:08.695Z,20.07
2019-03-05T00:55:00.568Z,19.60
2019-03-05T00:57:52.323Z,22.47
2019-03-05T01:00:46.934Z,21.30
2019-03-05T01:03:46.343Z,22.00
2019-03-05T01:06:17.611Z,21.93
2019-03-05T01:08:47.097Z,18.90
2019-03-05T01:11:17.529Z,17.97
2019-03-05T01:13:47.195Z,20.70
2019-03-05T01:16:18.291Z,22.90
2019-03-05T01:18:47.783Z,18.13
2019-03-05T01:21:17.575Z,16.73
2019-03-05T01:23:47.230Z,15.93
2019-03-05T01:26:16.738Z,18.23
2019-03-05T01:28:46.200Z,16.17
2019-03-05T01:31:33.440Z,16.80
2019-03-05T01:34:16.722Z,19.57
2019-03-05T01:36:50.008Z,15.37
2019-03-05T01:39:54.049Z,23.93
2019-03-05T01:42:23.620Z,15.80
2019-03-05T01:44:53.083Z,17.50
2019-03-05T01:47:22.576Z,19.20
2019-03-05T01:49:52.081Z,18.80
2019-03-05T01:52:21.612Z,17.00
2019-03-05T01:54:51.099Z,17.03
2019-03-05T01:57:20.603Z,16.93
2019-03-05T01:59:50.100Z,15.03
2019-03-05T02:02:19.604Z,18.27
2019-03-05T02:04:49.073Z,14.07
2019-03-05T02:07:18.885Z,17.37
2019-03-05T02:09:48.494Z,17.47
2019-03-05T02:12:18.010Z,18.10
2019-03-05T02:14:47.490Z,17.63
2019-03-05T02:17:17.091Z,17.97
2019-03-05T02:19:49.310Z,16.50
2019-03-05T02:22:43.732Z,17.80
2019-03-05T02:25:37.325Z,17.10
2019-03-05T02:28:35.472Z,16.63
2019-03-05T02:31:27.913Z,18.73
2019-03-05T02:34:35.211Z,17.20
2019-03-05T02:37:36.693Z,18.03
2019-03-05T02:40:45.203Z,16.20
2019-03-05T02:43:27.071Z,17.30
2019-03-05T02:46:35.421Z,16.63
2019-03-05T02:49:52.000Z,17.53
2019-03-05T02:52:54.266Z,15.30
2019-03-05T02:56:07.662Z,15.87
2019-03-05T02:58:35.348Z,19.13
2019-03-05T03:01:22.389Z,16.53
2019-03-05T03:03:55.351Z,16.30
2019-03-05T03:06:27.903Z,18.27
2019-03-05T03:09:30.647Z,16.10
2019-03-05T03:12:00.235Z,16.03
2019-03-05T03:14:29.734Z,16.63
2019-03-05T03:16:59.224Z,17.67
2019-03-05T03:19:28.732Z,18.03
2019-03-05T03:21:58.257Z,14.43
2019-03-05T03:24:27.830Z,19.00
2019-03-05T03:26:57.309Z,15.57
2019-03-05T03:29:26.788Z,17.20
2019-03-05T03:31:56.253Z,18.03
2019-03-05T03:34:25.851Z,18.77
2019-03-05T03:36:55.362Z,17.00
2019-03-05T03:39:24.871Z,23.53
2019-03-05T03:41:54.370Z,16.70
2019-03-05T03:44:23.885Z,16.07
2019-03-05T03:46:53.387Z,15.37
2019-03-05T03:49:22.899Z,17.93
2019-03-05T03:51:52.392Z,18.47
2019-03-05T03:54:21.898Z,17.27
2019-03-05T03:56:51.441Z,15.97
2019-03-05T03:59:20.926Z,16.43
2019-03-05T04:01:50.425Z,13.47
2019-03-05T04:04:19.931Z,19.23
2019-03-05T04:06:49.423Z,18.40
2019-03-05T04:09:18.934Z,18.17
2019-03-05T04:11:48.431Z,18.10
2019-03-05T04:14:17.931Z,18.27
2019-03-05T04:16:47.421Z,18.47
2019-03-05T04:19:20.028Z,18.03
2019-03-05T04:21:49.597Z,15.07
2019-03-05T04:24:19.101Z,16.50
2019-03-05T04:26:48.635Z,17.07
2019-03-05T04:29:18.100Z,15.37
2019-03-05T04:31:47.580Z,19.13
2019-03-05T04:34:17.109Z,17.83
2019-03-05T04:36:46.633Z,18.33
2019-03-05T04:39:16.170Z,19.30
2019-03-05T04:41:45.669Z,19.10
2019-03-05T04:44:18.680Z,20.63
2019-03-05T04:46:51.664Z,18.30
2019-03-05T04:49:52.137Z,18.43
2019-03-05T04:52:25.396Z,23.23
2019-03-05T04:54:54.906Z,20.37
2019-03-05T04:57:24.432Z,16.57
2019-03-05T04:59:53.930Z,21.93
2019-03-05T05:02:23.488Z,19.97
2019-03-05T05:04:53.020Z,24.40
2019-03-05T05:07:22.474Z,25.17
2019-03-05T05:09:51.984Z,28.70
2019-03-05T05:12:21.491Z,28.27
2019-03-05T05:14:51.019Z,27.70
2019-03-05T05:17:20.537Z,20.33
2019-03-05T05:19:50.030Z,22.47
2019-03-05T05:22:19.535Z,23.33
2019-03-05T05:24:49.086Z,22.67
2019-03-05T05:27:18.575Z,20.50
2019-03-05T05:29:48.051Z,23.77
2019-03-05T05:32:17.632Z,23.33
2019-03-05T05:34:47.216Z,20.67
2019-03-05T05:37:16.787Z,24.63
2019-03-05T05:40:21.706Z,16.83
2019-03-05T05:42:51.264Z,20.80
2019-03-05T05:45:21.417Z,19.67
2019-03-05T05:47:50.941Z,34.17
2019-03-05T05:50:21.130Z,23.00
2019-03-05T05:52:50.674Z,21.63
2019-03-05T05:55:20.202Z,25.77
2019-03-05T05:57:49.768Z,25.50
2019-03-05T06:00:19.319Z,28.53
2019-03-05T06:02:48.875Z,26.23
2019-03-05T06:05:18.486Z,38.57
2019-03-05T06:07:48.036Z,24.13
2019-03-05T06:10:17.547Z,25.13
2019-03-05T06:12:47.037Z,20.30
2019-03-05T06:15:16.541Z,22.03
2019-03-05T06:17:46.084Z,25.73
2019-03-05T06:20:15.603Z,24.37
2019-03-05T06:22:45.102Z,22.73
2019-03-05T06:25:15.179Z,26.13
2019-03-05T06:27:44.714Z,20.37
2019-03-05T06:30:15.187Z,16.87
2019-03-05T06:32:44.665Z,25.03
2019-03-05T06:35:14.573Z,36.37
2019-03-05T06:37:44.106Z,24.93
2019-03-05T06:40:15.052Z,23.17
2019-03-05T06:42:44.541Z,24.83
2019-03-05T06:45:15.724Z,32.60
2019-03-05T06:47:45.452Z,39.17
2019-03-05T06:50:15.019Z,23.90
2019-03-05T06:52:44.636Z,27.13
2019-03-05T06:55:14.688Z,22.57
2019-03-05T06:57:44.413Z,26.63
2019-03-05T07:00:23.889Z,33.97
2019-03-05T07:02:53.467Z,22.53
2019-03-05T07:05:58.804Z,22.47
2019-03-05T07:08:28.290Z,23.50
2019-03-05T07:11:16.582Z,29.47
2019-03-05T07:13:46.146Z,19.13
2019-03-05T07:16:36.219Z,28.03
2019-03-05T07:19:41.859Z,18.87
2019-03-05T07:22:20.879Z,21.77
2019-03-05T07:24:51.442Z,22.90
2019-03-05T07:27:53.477Z,27.63
2019-03-05T07:30:24.526Z,26.80
2019-03-05T07:32:54.740Z,23.73
2019-03-05T07:35:26.232Z,21.77
2019-03-05T07:37:55.794Z,22.43
2019-03-05T07:40:25.351Z,19.87
2019-03-05T07:42:54.852Z,20.47
2019-03-05T07:45:24.474Z,21.07
2019-03-05T07:47:53.997Z,19.23
2019-03-05T07:50:23.528Z,23.90
2019-03-05T07:52:53.099Z,24.20
2019-03-05T07:55:22.587Z,22.67
2019-03-05T07:57:52.091Z,27.43
2019-03-05T08:00:22.602Z,23.33
2019-03-05T08:02:52.185Z,20.90
2019-03-05T08:05:21.677Z,26.73
2019-03-05T08:07:51.241Z,25.00
2019-03-05T08:10:29.455Z,20.50
2019-03-05T08:13:07.120Z,23.03
2019-03-05T08:16:23.071Z,21.77
2019-03-05T08:18:52.672Z,24.50
2019-03-05T08:21:22.177Z,24.87
2019-03-05T08:23:51.689Z,31.27
2019-03-05T08:26:24.556Z,25.07
2019-03-05T08:28:54.050Z,32.10
2019-03-05T08:31:23.571Z,28.50
2019-03-05T08:33:53.093Z,26.73
2019-03-05T08:36:22.624Z,29.63
2019-03-05T08:38:52.092Z,28.07
2019-03-05T08:41:21.603Z,24.63
2019-03-05T08:43:51.238Z,26.87
2019-03-05T08:46:20.764Z,27.63
2019-03-05T08:48:50.322Z,26.90
2019-03-05T08:51:19.886Z,31.93
2019-03-05T08:53:50.060Z,22.37
2019-03-05T08:56:19.682Z,28.40
2019-03-05T08:58:49.213Z,25.40
2019-03-05T09:01:18.799Z,25.93
2019-03-05T09:03:48.317Z,20.93
2019-03-05T09:06:17.870Z,23.83
2019-03-05T09:08:47.443Z,25.27
2019-03-05T09:11:17.079Z,20.77
2019-03-05T09:13:46.575Z,22.97
2019-03-05T09:16:16.193Z,17.37
2019-03-05T09:18:45.797Z,25.17
2019-03-05T09:21:15.723Z,21.00
2019-03-05T09:23:45.315Z,14.90
2019-03-05T09:26:15.004Z,14.40
2019-03-05T09:28:44.653Z,17.57
2019-03-05T09:31:14.165Z,9.67
2019-03-05T09:33:43.691Z,18.57
2019-03-05T09:36:13.209Z,7.83
2019-03-05T09:38:42.730Z,4.90
2019-03-05T09:41:12.249Z,11.10
2019-03-05T09:43:41.747Z,6.23
2019-03-05T09:46:12.833Z,8.37
2019-03-05T09:48:42.346Z,8.10
2019-03-05T09:51:11.855Z,7.83
2019-03-05T09:53:41.427Z,5.50
2019-03-05T09:56:11.058Z,7.93
2019-03-05T09:58:40.665Z,9.93
2019-03-05T10:01:12.448Z,11.10
2019-03-05T10:03:41.942Z,10.23
2019-03-05T10:06:11.453Z,10.10
2019-03-05T10:08:41.073Z,7.53
2019-03-05T10:11:11.753Z,8.17
2019-03-05T10:13:41.236Z,8.17
2019-03-05T10:16:10.817Z,9.17
2019-03-05T10:18:42.268Z,11.20
2019-03-05T10:21:14.897Z,7.40
2019-03-05T10:23:45.398Z,5.73
2019-03-05T10:26:14.959Z,5.90
2019-03-05T10:28:44.562Z,10.47
2019-03-05T10:31:14.040Z,7.67
2019-03-05T10:33:43.519Z,5.40
2019-03-05T10:36:13.086Z,7.57
2019-03-05T10:38:42.614Z,9.93
2019-03-05T10:41:12.233Z,6.60
2019-03-05T10:43:41.816Z,5.90
2019-03-05T10:46:11.900Z,6.70
2019-03-05T10:48:41.448Z,9.10
2019-03-05T10:51:10.968Z,11.60
2019-03-05T10:53:40.593Z,5.93
2019-03-05T10:56:10.208Z,8.87
2019-03-05T10:58:39.766Z,7.23
2019-03-05T11:01:11.167Z,7.70
2019-03-05T11:03:40.643Z,7.37
2019-03-05T11:06:10.121Z,7.37
2019-03-05T11:08:39.720Z,7.00
2019-03-05T11:11:13.393Z,7.53
2019-03-05T11:13:40.748Z,10.17
2019-03-05T11:16:10.603Z,8.87
2019-03-05T11:18:40.121Z,9.63
2019-03-05T11:21:09.717Z,9.03
2019-03-05T11:23:39.308Z,7.33
2019-03-05T11:26:08.895Z,7.40
2019-03-05T11:28:38.355Z,7.57
2019-03-05T11:31:08.036Z,7.50
2019-03-05T11:33:37.539Z,7.70
2019-03-05T11:36:07.301Z,9.77
2019-03-05T11:38:36.803Z,12.80
2019-03-05T11:41:06.407Z,6.30
2019-03-05T11:43:35.990Z,11.13
2019-03-05T11:46:08.725Z,8.27
2019-03-05T11:48:38.282Z,7.20
2019-03-05T11:51:07.811Z,7.30
2019-03-05T11:53:37.337Z,10.93
2019-03-05T11:56:07.076Z,9.43
2019-03-05T11:58:36.607Z,6.53
2019-03-05T12:01:13.790Z,7.73
2019-03-05T12:03:43.290Z,8.63
2019-03-05T12:06:12.839Z,7.73
2019-03-05T12:08:42.394Z,8.03
2019-03-05T12:11:11.918Z,6.97
2019-03-05T12:13:41.437Z,7.13
2019-03-05T12:16:13.236Z,6.40
2019-03-05T12:18:42.721Z,8.70
2019-03-05T12:21:12.262Z,10.20
2019-03-05T12:23:46.793Z,5.20
2019-03-05T12:26:13.085Z,9.37
2019-03-05T12:28:42.619Z,8.10
2019-03-05T12:31:12.190Z,6.87
2019-03-05T12:33:41.687Z,8.03
2019-03-05T12:36:11.779Z,6.40
2019-03-05T12:38:41.287Z,5.20
2019-03-05T12:41:10.862Z,8.23
2019-03-05T12:43:40.358Z,5.33
2019-03-05T12:46:09.908Z,5.97
2019-03-05T12:48:40.445Z,7.27
2019-03-05T12:51:10.953Z,6.70
2019-03-05T12:53:40.476Z,6.47
2019-03-05T12:56:10.021Z,7.50
2019-03-05T12:58:39.635Z,6.60
2019-03-05T13:01:09.408Z,10.17
2019-03-05T13:03:38.912Z,7.20
2019-03-05T13:06:08.448Z,12.63
2019-03-05T13:08:37.929Z,19.03
2019-03-05T13:11:09.304Z,15.17
2019-03-05T13:13:38.764Z,10.20
2019-03-05T13:16:08.296Z,10.77
2019-03-05T13:18:37.847Z,11.37
2019-03-05T13:21:08.620Z,9.43
2019-03-05T13:23:38.291Z,9.37
2019-03-05T13:26:09.220Z,9.77
2019-03-05T13:28:40.563Z,8.97
2019-03-05T13:31:10.161Z,8.33
2019-03-05T13:33:42.012Z,11.10
2019-03-05T13:36:12.494Z,7.80
2019-03-05T13:38:45.387Z,9.67
2019-03-05T13:41:15.693Z,9.10
2019-03-05T13:43:45.696Z,12.07
2019-03-05T13:46:15.164Z,8.80
2019-03-05T13:49:14.415Z,8.63
2019-03-05T13:52:12.751Z,6.93
2019-03-05T13:55:14.552Z,6.43
2019-03-05T13:58:20.089Z,10.67
2019-03-05T14:00:50.884Z,6.90
2019-03-05T14:03:24.154Z,11.17
2019-03-05T14:06:21.814Z,12.93
2019-03-05T14:09:15.851Z,5.57
2019-03-05T14:11:46.775Z,4.97
2019-03-05T14:14:39.191Z,11.57
2019-03-05T14:17:33.486Z,7.23
2019-03-05T14:20:03.117Z,8.63
2019-03-05T14:22:32.635Z,8.93
2019-03-05T14:25:03.075Z,7.10
2019-03-05T14:27:32.716Z,7.77
2019-03-05T14:30:03.029Z,9.43
2019-03-05T14:32:32.755Z,11.50
2019-03-05T14:35:04.276Z,12.93
2019-03-05T14:37:33.949Z,12.00
2019-03-05T14:40:22.901Z,11.70
2019-03-05T14:42:34.950Z,7.73
2019-03-05T14:45:04.714Z,12.03
2019-03-05T14:47:34.243Z,11.50
2019-03-05T14:50:03.918Z,11.57
2019-03-05T14:52:33.453Z,10.93
2019-03-05T14:55:02.928Z,7.87
2019-03-05T14:57:32.549Z,12.17
2019-03-05T15:00:02.104Z,11.50
2019-03-05T15:02:31.667Z,8.37
2019-03-05T15:05:01.207Z,10.40
2019-03-05T15:07:30.777Z,9.60
2019-03-05T15:10:00.476Z,9.17
2019-03-05T15:12:30.053Z,9.13
2019-03-05T15:14:59.659Z,10.83
2019-03-05T15:17:29.252Z,9.17
2019-03-05T15:19:58.864Z,9.50
2019-03-05T15:22:28.432Z,9.77
2019-03-05T15:24:58.055Z,12.50
2019-03-05T15:27:27.539Z,9.30
2019-03-05T15:29:57.107Z,9.27
2019-03-05T15:32:33.888Z,9.97
2019-03-05T15:35:03.339Z,14.20
2019-03-05T15:37:32.820Z,9.43
2019-03-05T15:40:02.347Z,9.63
2019-03-05T15:42:31.910Z,16.33
2019-03-05T15:45:01.387Z,11.60
2019-03-05T15:47:30.998Z,11.50
2019-03-05T15:50:00.607Z,13.77
2019-03-05T15:52:30.232Z,12.97
2019-03-05T15:54:59.771Z,15.70
2019-03-05T15:57:29.316Z,14.13
2019-03-05T15:59:58.838Z,11.77
2019-03-05T16:02:28.429Z,18.30
2019-03-05T16:04:57.933Z,22.33
2019-03-05T16:07:27.473Z,21.67
2019-03-05T16:09:57.037Z,15.27
2019-03-05T16:12:26.554Z,13.60
2019-03-05T16:14:56.092Z,18.50
2019-03-05T16:17:28.216Z,18.67
2019-03-05T16:19:56.987Z,16.47
2019-03-05T16:22:29.162Z,16.33
2019-03-05T16:24:58.757Z,19.80
2019-03-05T16:27:29.938Z,12.60
2019-03-05T16:29:59.519Z,15.90
2019-03-05T16:32:37.648Z,16.67
2019-03-05T16:35:25.501Z,17.33
2019-03-05T16:38:09.629Z,11.43
2019-03-05T16:40:56.789Z,18.53
2019-03-05T16:43:51.389Z,14.07
2019-03-05T16:46:38.669Z,10.93
2019-03-05T16:49:17.831Z,12.30
2019-03-05T16:51:52.735Z,12.80
2019-03-05T16:54:50.129Z,14.60
2019-03-05T16:57:41.705Z,9.93
2019-03-05T17:00:20.556Z,11.63
2019-03-05T17:03:10.866Z,14.27
2019-03-05T17:06:11.382Z,13.53
2019-03-05T17:08:48.964Z,12.13
2019-03-05T17:11:51.298Z,10.53
2019-03-05T17:14:20.837Z,11.67
2019-03-05T17:16:50.436Z,11.93
2019-03-05T17:19:19.999Z,14.00
2019-03-05T17:21:49.664Z,13.50
2019-03-05T17:24:19.788Z,11.03
2019-03-05T17:26:49.299Z,14.80
2019-03-05T17:29:18.873Z,12.80
2019-03-05T17:31:48.520Z,12.87
2019-03-05T17:34:18.256Z,13.77
2019-03-05T17:36:47.852Z,15.33
2019-03-05T17:39:25.962Z,14.10
2019-03-05T17:41:55.633Z,14.43
2019-03-05T17:44:25.320Z,9.00
2019-03-05T17:46:54.851Z,9.80
2019-03-05T17:49:24.540Z,12.50
2019-03-05T17:51:54.092Z,9.73
2019-03-05T17:54:23.665Z,10.80
2019-03-05T17:56:53.527Z,10.03
2019-03-05T17:59:23.058Z,12.33
2019-03-05T18:01:52.583Z,12.27
2019-03-05T18:04:22.115Z,10.60
2019-03-05T18:06:51.645Z,12.20
2019-03-05T18:09:21.175Z,12.90
2019-03-05T18:11:50.779Z,13.47
2019-03-05T18:14:20.355Z,13.33
2019-03-05T18:16:49.834Z,9.80
2019-03-05T18:19:19.463Z,15.93
2019-03-05T18:21:49.106Z,15.27
2019-03-05T18:24:18.678Z,17.23
2019-03-05T18:26:48.557Z,20.43
2019-03-05T18:29:18.109Z,22.20
2019-03-05T18:31:47.888Z,22.33
2019-03-05T18:34:18.444Z,23.03
2019-03-05T18:36:50.841Z,20.50
2019-03-05T18:39:20.668Z,14.13
2019-03-05T18:41:50.210Z,18.13
2019-03-05T18:44:21.542Z,14.57
2019-03-05T18:46:51.362Z,19.53
2019-03-05T18:49:20.884Z,20.07
2019-03-05T18:51:50.457Z,23.50
2019-03-05T18:54:19.979Z,20.63
2019-03-05T18:56:49.552Z,25.40
2019-03-05T18:59:19.176Z,24.87
2019-03-05T19:01:48.772Z,22.60
2019-03-05T19:04:18.350Z,18.30
2019-03-05T19:06:47.961Z,17.40
2019-03-05T19:09:17.693Z,17.83
2019-03-05T19:11:47.244Z,15.00
2019-03-05T19:14:16.736Z,16.53
2019-03-05T19:16:46.325Z,16.00
2019-03-05T19:19:15.873Z,21.50
2019-03-05T19:21:45.398Z,19.63
2019-03-05T19:24:14.981Z,19.90
2019-03-05T19:26:44.518Z,18.47
2019-03-05T19:29:14.060Z,16.00
2019-03-05T19:31:43.587Z,15.63
2019-03-05T19:34:13.158Z,15.97
2019-03-05T19:36:42.694Z,11.70
2019-03-05T19:39:13.804Z,14.93
2019-03-05T19:41:43.496Z,14.87
2019-03-05T19:44:13.054Z,15.40
2019-03-05T19:46:42.533Z,17.80
2019-03-05T19:49:12.063Z,19.13
2019-03-05T19:51:41.708Z,20.30
2019-03-05T19:54:11.305Z,16.13
2019-03-05T19:56:40.868Z,15.40
2019-03-05T19:59:10.382Z,12.67
2019-03-05T20:01:43.015Z,12.33
2019-03-05T20:04:15.475Z,10.37
2019-03-05T20:06:44.992Z,12.37
2019-03-05T20:09:18.471Z,10.73
2019-03-05T20:11:48.021Z,13.20
2019-03-05T20:14:17.585Z,10.77
2019-03-05T20:16:47.084Z,19.00
2019-03-05T20:19:16.593Z,13.60
2019-03-05T20:21:46.121Z,11.83
2019-03-05T20:24:16.067Z,13.67
2019-03-05T20:26:45.776Z,12.63
2019-03-05T20:29:15.279Z,12.77
2019-03-05T20:31:44.821Z,12.90
2019-03-05T20:34:14.316Z,12.77
2019-03-05T20:36:44.159Z,12.27
2019-03-05T20:39:13.743Z,11.80
2019-03-05T20:41:43.247Z,10.87
2019-03-05T20:44:15.546Z,11.37
2019-03-05T20:46:45.088Z,16.47
2019-03-05T20:49:14.601Z,11.53
2019-03-05T20:51:44.093Z,9.03
2019-03-05T20:54:13.664Z,9.37
2019-03-05T20:56:43.149Z,9.40
2019-03-05T20:59:13.472Z,10.30
2019-03-05T21:01:43.126Z,12.23
2019-03-05T21:04:12.748Z,13.47
2019-03-05T21:06:42.258Z,11.43
2019-03-05T21:09:21.843Z,13.20
2019-03-05T21:11:51.491Z,12.03
2019-03-05T21:14:20.961Z,8.50
2019-03-05T21:16:50.489Z,10.23
2019-03-05T21:19:20.013Z,9.93
2019-03-05T21:21:49.494Z,12.93
2019-03-05T21:24:18.964Z,14.83
2019-03-05T21:26:48.452Z,13.80
2019-03-05T21:29:17.955Z,11.17
2019-03-05T21:31:47.460Z,12.27
2019-03-05T21:34:17.107Z,8.73
2019-03-05T21:36:46.856Z,7.40
2019-03-05T21:39:18.606Z,10.37
2019-03-05T21:41:48.193Z,10.83
2019-03-05T21:44:17.848Z,7.67
2019-03-05T21:46:47.527Z,7.70
2019-03-05T21:49:17.199Z,8.63
2019-03-05T21:51:46.729Z,8.17
2019-03-05T21:54:16.195Z,8.17
2019-03-05T21:56:45.869Z,7.33
2019-03-05T21:59:15.365Z,6.93
2019-03-05T22:01:45.028Z,7.10
2019-03-05T22:04:14.594Z,8.40
2019-03-05T22:06:44.073Z,6.87
2019-03-05T22:09:13.731Z,7.13
2019-03-05T22:11:43.488Z,6.17
2019-03-05T22:14:12.944Z,6.00
2019-03-05T22:16:42.436Z,8.07
2019-03-05T22:19:11.935Z,8.80
2019-03-05T22:21:41.480Z,8.77
2019-03-05T22:24:10.939Z,5.67
2019-03-05T22:26:40.433Z,7.80
2019-03-05T22:29:09.950Z,7.80
2019-03-05T22:31:39.536Z,8.13
2019-03-05T22:34:09.061Z,6.77
2019-03-05T22:36:38.705Z,7.33
2019-03-05T22:39:08.693Z,6.77
2019-03-05T22:41:38.408Z,6.20
2019-03-05T22:44:08.072Z,10.30
2019-03-05T22:46:37.618Z,8.47
2019-03-05T22:49:07.141Z,9.27
2019-03-05T22:51:36.705Z,8.13
2019-03-05T22:54:06.162Z,7.87
2019-03-05T22:56:35.678Z,6.90
2019-03-05T22:59:05.451Z,8.30
2019-03-05T23:01:38.796Z,7.37
2019-03-05T23:04:09.060Z,7.97
2019-03-05T23:06:39.056Z,7.37
2019-03-05T23:09:20.971Z,8.10
2019-03-05T23:11:50.545Z,6.27
2019-03-05T23:14:20.442Z,5.40
2019-03-05T23:16:50.030Z,5.87
2019-03-05T23:19:19.844Z,4.87
2019-03-05T23:21:49.539Z,4.50
2019-03-05T23:24:19.039Z,3.70
2019-03-05T23:26:48.518Z,3.17
2019-03-05T23:29:19.677Z,3.23
2019-03-05T23:31:49.216Z,3.40
2019-03-05T23:34:19.026Z,3.47
2019-03-05T23:36:48.576Z,3.60
2019-03-05T23:39:18.782Z,3.60
2019-03-05T23:41:48.276Z,4.00
2019-03-05T23:44:17.792Z,4.00
2019-03-05T23:46:47.347Z,4.00
2019-03-05T23:49:16.831Z,3.87
2019-03-05T23:51:46.446Z,5.13
2019-03-05T23:54:15.929Z,5.13
2019-03-05T23:56:45.424Z,6.30
2019-03-05T23:59:14.901Z,5.50
